Loppoey — LCBX — position and weather

sailwx.info

Track history (hours):
 
Tides and Currents Weather Stations Pressure Air Temp Water Temp Dewpoint Dewpoint Depression Visibility Wind Speed Wind Dir Waves Ship Positions

Loppoey

Last reported at 2017-Nov-17 15:39 UTC. Time now 2017-Nov-24 14:53 UTC.
Position N 70°40' E 023°41'.

Length 27 m; draft 1 m.

Type: High speed craft. MMSI: 258127000.

Date/timePositionNaut miles runAvg speedWind from/ knotsBaromVisibWave heightAir tempDewpointWater temp
2017-Nov-17 15:39N 70°40' E 023°41'0 0.4
2017-Nov-17 15:30N 70°40' E 023°41'0 0.0
2017-Nov-17 14:58N 70°40' E 023°41'0 0.0
2017-Nov-17 14:30N 70°40' E 023°41'0 0.0
2017-Nov-17 14:00N 70°40' E 023°41'0 0.0
2017-Nov-17 13:30N 70°40' E 023°41'0 0.0
2017-Nov-17 13:00N 70°40' E 023°41'0 0.0
2017-Nov-17 12:30N 70°40' E 023°41'0 0.0
2017-Nov-17 11:59N 70°40' E 023°41'0 0.0
2017-Nov-17 11:30N 70°40' E 023°41'0 0.0
2017-Nov-17 11:00N 70°40' E 023°41'0 0.0
2017-Nov-17 10:29N 70°40' E 023°41'0 0.0
2017-Nov-17 09:59N 70°40' E 023°41'0 0.0
2017-Nov-17 09:30N 70°40' E 023°41'0 0.0
2017-Nov-17 09:00N 70°40' E 023°41'0 0.0
2017-Nov-17 08:30N 70°40' E 023°41'0 0.4
2017-Nov-17 08:00N 70°40' E 023°40'43 1.9
2017-Nov-16 09:05N 70°17' E 021°50'224.6
2017-Nov-16 09:00N 70°15' E 021°47'611.4
2017-Nov-16 08:30N 70°20' E 021°57'1020.0
2017-Nov-16 08:00N 70°14' E 022°21'0 0.0
2017-Nov-16 07:30N 70°14' E 022°21'0 0.0
2017-Nov-16 07:00N 70°14' E 022°21'0 0.0
2017-Nov-16 06:30N 70°14' E 022°21'0 0.0
2017-Nov-16 06:00N 70°14' E 022°21'0 0.0
2017-Nov-16 05:30N 70°14' E 022°21'0 0.0
2017-Nov-16 05:00N 70°14' E 022°21'0 0.0
2017-Nov-16 04:30N 70°14' E 022°21'0 0.0
2017-Nov-16 04:00N 70°14' E 022°21'0 0.0
2017-Nov-16 03:30N 70°14' E 022°21'0 0.0
2017-Nov-16 03:00N 70°14' E 022°21'0 0.0
2017-Nov-16 02:30N 70°14' E 022°21'0 0.0
2017-Nov-16 02:00N 70°14' E 022°21'0 0.0
2017-Nov-16 01:30N 70°14' E 022°21'0 0.0
2017-Nov-16 01:00N 70°14' E 022°21'0 0.0
2017-Nov-16 00:30N 70°14' E 022°21'0 0.0
2017-Nov-16 00:00N 70°14' E 022°21'0 0.0
2017-Nov-15 23:30N 70°14' E 022°21'0 0.0
2017-Nov-15 23:00N 70°14' E 022°21'0 0.0
2017-Nov-15 22:30N 70°14' E 022°21'0 0.0
2017-Nov-15 22:00N 70°14' E 022°21'0 0.0
2017-Nov-15 21:30N 70°14' E 022°21'0 0.0
2017-Nov-15 20:59N 70°14' E 022°21'0 0.0
2017-Nov-15 20:30N 70°14' E 022°21'0 0.0
2017-Nov-15 20:00N 70°14' E 022°21'0 0.0
2017-Nov-15 19:30N 70°14' E 022°21'0 0.0
2017-Nov-15 19:00N 70°14' E 022°21'0 0.0
2017-Nov-15 18:30N 70°14' E 022°21'0 0.0
2017-Nov-15 17:59N 70°14' E 022°21'1020.0
2017-Nov-15 17:30N 70°24' E 022°15'510.6
2017-Nov-15 17:00N 70°28' E 022°23'1325.8
2017-Nov-15 16:30N 70°32' E 023°01'1019.8
2017-Nov-15 16:00N 70°38' E 023°24'611.6
2017-Nov-15 15:30N 70°40' E 023°41'0 0.0
2017-Nov-15 15:00N 70°40' E 023°41'0 0.0
2017-Nov-15 14:30N 70°40' E 023°41'0 0.0
2017-Nov-15 14:00N 70°40' E 023°41'0 0.0
2017-Nov-15 13:31N 70°40' E 023°41'0 0.0
2017-Nov-15 13:00N 70°40' E 023°41'0 0.0
2017-Nov-15 12:30N 70°40' E 023°41'0 0.0
2017-Nov-15 12:00N 70°40' E 023°41'0 0.0
2017-Nov-15 11:31N 70°40' E 023°41'0 0.0
2017-Nov-15 11:00N 70°40' E 023°41'0 0.2
2017-Nov-15 10:30N 70°40' E 023°41'1223.6
2017-Nov-15 10:00N 70°33' E 023°11'1121.7
2017-Nov-15 09:30N 70°29' E 022°41'1021.0
2017-Nov-15 09:00N 70°29' E 022°10'1223.5
2017-Nov-15 08:30N 70°17' E 022°19'3 6.1
2017-Nov-15 08:00N 70°14' E 022°21'0 0.0
2017-Nov-15 07:30N 70°14' E 022°21'0 0.0
2017-Nov-15 07:00N 70°14' E 022°21'0 0.0
2017-Nov-15 06:30N 70°14' E 022°21'0 0.0
2017-Nov-15 06:00N 70°14' E 022°21'0 0.0
2017-Nov-15 05:30N 70°14' E 022°21'0 0.0
2017-Nov-15 05:01N 70°14' E 022°21'0 0.0
2017-Nov-15 04:30N 70°14' E 022°21'0 0.0
2017-Nov-15 04:00N 70°14' E 022°21'0 0.0
2017-Nov-15 03:29N 70°14' E 022°21'0 0.0
2017-Nov-15 03:00N 70°14' E 022°21'0 0.0
2017-Nov-15 02:30N 70°14' E 022°21'0 0.0
2017-Nov-15 02:00N 70°14' E 022°21'0 0.0
2017-Nov-15 01:30N 70°14' E 022°21'0 0.0
2017-Nov-15 01:00N 70°14' E 022°21'0 0.0
2017-Nov-15 00:30N 70°14' E 022°21'0 0.0
2017-Nov-15 00:00N 70°14' E 022°21'0 0.0
2017-Nov-14 23:30N 70°14' E 022°21'0 0.0
2017-Nov-14 23:01N 70°14' E 022°21'0 0.0
2017-Nov-14 22:30N 70°14' E 022°21'0 0.0
2017-Nov-14 22:00N 70°14' E 022°21'0 0.0
2017-Nov-14 21:30N 70°14' E 022°21'0 0.0
2017-Nov-14 21:01N 70°14' E 022°21'0 0.0
2017-Nov-14 20:30N 70°14' E 022°21'0 0.0
2017-Nov-14 20:00N 70°14' E 022°21'0 0.0
2017-Nov-14 19:30N 70°14' E 022°21'0 0.0
2017-Nov-14 19:00N 70°14' E 022°21'0 0.0
2017-Nov-14 18:30N 70°14' E 022°21'0 0.0
2017-Nov-14 18:00N 70°14' E 022°21'0 0.0
2017-Nov-14 17:30N 70°14' E 022°21'0 0.0
2017-Nov-14 16:59N 70°14' E 022°21'0 0.0
2017-Nov-14 16:30N 70°14' E 022°21'0 0.0
2017-Nov-14 16:00N 70°14' E 022°21'0 0.0
2017-Nov-14 15:30N 70°14' E 022°21'0 0.0
2017-Nov-14 15:00N 70°14' E 022°21'0 0.0
2017-Nov-14 14:30N 70°14' E 022°21'917.3
2017-Nov-14 14:00N 70°23' E 022°27'1325.2
2017-Nov-14 13:30N 70°31' E 022°56'1225.0
2017-Nov-14 13:00N 70°38' E 023°25'510.6
2017-Nov-14 12:30N 70°40' E 023°40'0 0.0
2017-Nov-14 12:00N 70°40' E 023°40'0 0.0
2017-Nov-14 11:30N 70°40' E 023°40'0 0.8
2017-Nov-14 11:00N 70°40' E 023°41'0 0.0
2017-Nov-14 10:30N 70°40' E 023°41'713.7
2017-Nov-14 10:00N 70°47' E 023°44'1325.3
2017-Nov-14 09:30N 70°55' E 024°14'1019.0
2017-Nov-14 09:00N 70°60' E 024°39'0 0.0
2017-Nov-14 08:30N 70°60' E 024°39'0 0.7
2017-Nov-14 08:00N 70°60' E 024°41'0 0.7
2017-Nov-14 07:30N 70°60' E 024°39'0 0.0
2017-Nov-14 07:00N 70°60' E 024°39'0 0.0
2017-Nov-14 06:30N 70°60' E 024°39'0 0.0
2017-Nov-14 05:59N 70°60' E 024°39'0 0.0
2017-Nov-14 05:30N 70°60' E 024°39'0 0.0
2017-Nov-14 05:00N 70°60' E 024°39'0 0.0
2017-Nov-14 04:30N 70°60' E 024°39'0 0.0
2017-Nov-14 04:00N 70°60' E 024°39'0 0.0
2017-Nov-14 03:30N 70°60' E 024°39'0 0.0
2017-Nov-14 03:00N 70°60' E 024°39'0 0.0
2017-Nov-14 02:30N 70°60' E 024°39'0 0.0
2017-Nov-14 01:59N 70°60' E 024°39'0 0.0
2017-Nov-14 01:29N 70°60' E 024°39'0 0.0
2017-Nov-14 01:00N 70°60' E 024°39'0 0.0
2017-Nov-14 00:30N 70°60' E 024°39'0 0.0
2017-Nov-13 23:59N 70°60' E 024°39'0 0.0
2017-Nov-13 23:30N 70°60' E 024°39'0 0.0
2017-Nov-13 23:00N 70°60' E 024°39'0 0.0
2017-Nov-13 22:30N 70°60' E 024°39'0 0.0
2017-Nov-13 21:59N 70°60' E 024°39'0 0.0
2017-Nov-13 02:00N 70°60' E 024°39'0 0.0
2017-Nov-13 01:30N 70°60' E 024°39'0 0.1
2017-Nov-13 01:00N 70°60' E 024°39'0 0.0
2017-Nov-13 00:30N 70°60' E 024°39'0 0.0
2017-Nov-13 00:00N 70°60' E 024°39'0 0.0
2017-Nov-12 23:30N 70°60' E 024°39'0 0.0
2017-Nov-12 23:00N 70°60' E 024°39'0 0.0
2017-Nov-12 22:30N 70°60' E 024°39'0 0.0
2017-Nov-12 22:00N 70°60' E 024°39'0 0.0
2017-Nov-12 21:30N 70°60' E 024°39'0 0.0
2017-Nov-12 21:00N 70°60' E 024°39'0 0.0
2017-Nov-12 20:30N 70°60' E 024°39'0 0.1
2017-Nov-12 20:00N 70°60' E 024°39'0 0.1
2017-Nov-12 19:29N 70°60' E 024°39'0 0.0
2017-Nov-12 19:00N 70°60' E 024°39'0 0.0
2017-Nov-12 18:30N 70°60' E 024°39'0 0.0
2017-Nov-12 18:00N 70°60' E 024°39'0 0.0
2017-Nov-12 17:30N 70°60' E 024°39'0 0.0
2017-Nov-12 17:00N 70°60' E 024°39'0 0.0
2017-Nov-12 16:30N 70°60' E 024°39'0 0.0
2017-Nov-12 16:00N 70°60' E 024°39'0 0.0
2017-Nov-12 15:29N 70°60' E 024°39'0 0.0
2017-Nov-12 15:00N 70°60' E 024°39'0 0.0
2017-Nov-12 14:30N 70°60' E 024°39'0 0.1
2017-Nov-12 14:00N 70°60' E 024°39'0 0.0
2017-Nov-12 13:29N 70°60' E 024°39'0 0.0
2017-Nov-12 13:00N 70°60' E 024°39'0 0.0
2017-Nov-12 12:30N 70°60' E 024°39'0 0.0
2017-Nov-12 12:00N 70°60' E 024°39'0 0.0
2017-Nov-12 11:30N 70°60' E 024°39'0 0.0
2017-Nov-12 11:00N 70°60' E 024°39'0 0.0
2017-Nov-12 10:30N 70°60' E 024°39'0 0.0
2017-Nov-12 10:00N 70°60' E 024°39'0 0.0
2017-Nov-12 09:30N 70°60' E 024°39'0 0.0
2017-Nov-12 09:00N 70°60' E 024°39'0 0.0
2017-Nov-12 08:30N 70°60' E 024°39'0 0.0
2017-Nov-12 08:00N 70°60' E 024°39'0 0.0
2017-Nov-12 07:30N 70°60' E 024°39'0 0.0
2017-Nov-12 07:00N 70°60' E 024°39'0 0.0
2017-Nov-12 06:30N 70°60' E 024°39'0 0.0
2017-Nov-12 06:00N 70°60' E 024°39'0 0.0
2017-Nov-12 05:30N 70°60' E 024°39'0 0.0
2017-Nov-12 05:00N 70°60' E 024°39'0 0.0
2017-Nov-12 04:30N 70°60' E 024°39'0 0.1
2017-Nov-12 04:00N 70°60' E 024°39'0 0.0
2017-Nov-12 03:30N 70°60' E 024°39'0 0.0
2017-Nov-12 03:00N 70°60' E 024°39'0 0.1
2017-Nov-12 02:30N 70°60' E 024°39'0 0.0
2017-Nov-12 02:00N 70°60' E 024°39'0 0.0
2017-Nov-12 01:30N 70°60' E 024°39'0 0.0
2017-Nov-12 01:00N 70°60' E 024°39'0 0.0
2017-Nov-12 00:30N 70°60' E 024°39'0 0.0
2017-Nov-12 00:00N 70°60' E 024°39'0 0.0
2017-Nov-11 23:30N 70°60' E 024°39'0 0.0
2017-Nov-11 23:00N 70°60' E 024°39'0 0.0
2017-Nov-11 22:30N 70°60' E 024°39'0 0.0
2017-Nov-11 22:00N 70°60' E 024°39'0 0.0
2017-Nov-11 21:30N 70°60' E 024°39'0 0.0
2017-Nov-11 21:00N 70°60' E 024°39'0 0.0
2017-Nov-11 20:30N 70°60' E 024°39'0 0.0
2017-Nov-11 20:00N 70°60' E 024°39'0 0.0
2017-Nov-11 19:30N 70°60' E 024°39'0 0.0
2017-Nov-11 19:00N 70°60' E 024°39'0 0.0
2017-Nov-11 18:30N 70°60' E 024°39'0 0.0
2017-Nov-11 18:00N 70°60' E 024°39'0 0.0
2017-Nov-11 17:30N 70°60' E 024°39'0 0.0
2017-Nov-11 17:00N 70°60' E 024°39'0 0.0
2017-Nov-11 16:29N 70°60' E 024°39'0 0.0
2017-Nov-11 16:00N 70°60' E 024°39'0 0.0
2017-Nov-11 15:30N 70°60' E 024°39'0 0.0
2017-Nov-11 15:00N 70°60' E 024°39'0 0.0
2017-Nov-11 14:30N 70°60' E 024°39'0 0.0
2017-Nov-11 14:00N 70°60' E 024°39'0 0.0
2017-Nov-11 13:30N 70°60' E 024°39'0 0.0
2017-Nov-11 13:00N 70°60' E 024°39'0 0.0
2017-Nov-11 12:30N 70°60' E 024°39'0 0.0
2017-Nov-11 12:00N 70°60' E 024°39'0 0.0
2017-Nov-11 11:30N 70°60' E 024°39'0 0.0
2017-Nov-11 11:00N 70°60' E 024°39'0 0.0
2017-Nov-11 10:30N 70°60' E 024°39'0 0.0
2017-Nov-11 10:00N 70°60' E 024°39'0 0.0
2017-Nov-11 09:30N 70°60' E 024°39'0 0.0
2017-Nov-11 09:00N 70°60' E 024°39'0 0.0
2017-Nov-11 08:29N 70°60' E 024°39'0 0.0
2017-Nov-11 08:00N 70°60' E 024°39'0 0.0
2017-Nov-11 07:30N 70°60' E 024°39'0 0.0
2017-Nov-11 07:00N 70°60' E 024°39'0 0.0
2017-Nov-11 06:30N 70°60' E 024°39'0 0.0
2017-Nov-11 06:00N 70°60' E 024°39'0 0.0
2017-Nov-11 05:30N 70°60' E 024°39'0 0.0
2017-Nov-11 05:00N 70°60' E 024°39'0 0.0
2017-Nov-11 04:30N 70°60' E 024°39'0 0.0
2017-Nov-11 04:00N 70°60' E 024°39'0 0.0
2017-Nov-11 03:30N 70°60' E 024°39'0 0.0
2017-Nov-11 03:00N 70°60' E 024°39'0 0.0
2017-Nov-11 02:30N 70°60' E 024°39'0 0.0
2017-Nov-11 02:00N 70°60' E 024°39'0 0.0
2017-Nov-11 01:30N 70°60' E 024°39'0 0.1
2017-Nov-11 01:00N 70°60' E 024°39'0 0.0
2017-Nov-11 00:30N 70°60' E 024°39'0 0.0
2017-Nov-11 00:00N 70°60' E 024°39'0 0.0
2017-Nov-10 23:30N 70°60' E 024°39'0 0.0
2017-Nov-10 23:00N 70°60' E 024°39'0 0.0
2017-Nov-10 22:30N 70°60' E 024°39'0 0.0
2017-Nov-10 22:00N 70°60' E 024°39'0 0.0
2017-Nov-10 21:30N 70°60' E 024°39'0 0.0
2017-Nov-10 21:00N 70°60' E 024°39'0 0.0
2017-Nov-10 20:30N 70°60' E 024°39'0 0.0
2017-Nov-10 20:00N 70°60' E 024°39'0 0.0
2017-Nov-10 19:30N 70°60' E 024°39'0 0.0
2017-Nov-10 19:00N 70°60' E 024°39'0 0.0
2017-Nov-10 18:30N 70°60' E 024°39'0 0.0
2017-Nov-10 18:00N 70°60' E 024°39'0 0.0
2017-Nov-10 17:30N 70°60' E 024°39'0 0.0
2017-Nov-10 17:00N 70°60' E 024°39'0 0.0
2017-Nov-10 16:29N 70°60' E 024°39'0 0.0
2017-Nov-10 16:00N 70°60' E 024°39'0 0.0
2017-Nov-10 15:30N 70°60' E 024°39'0 0.0
2017-Nov-10 15:00N 70°60' E 024°39'0 0.0
2017-Nov-10 14:30N 70°60' E 024°39'0 0.0
2017-Nov-10 14:00N 70°60' E 024°39'0 0.0
2017-Nov-10 13:30N 70°60' E 024°39'0 0.1
2017-Nov-10 13:00N 70°60' E 024°39'0 0.0
2017-Nov-10 12:30N 70°60' E 024°39'0 0.0
2017-Nov-10 12:00N 70°60' E 024°39'0 0.0
2017-Nov-10 11:30N 70°60' E 024°39'0 0.0
2017-Nov-10 11:00N 70°60' E 024°39'0 0.0
2017-Nov-10 10:30N 70°60' E 024°39'0 0.0
2017-Nov-10 10:00N 70°60' E 024°39'0 0.0
2017-Nov-10 09:30N 70°60' E 024°39'0 0.0
2017-Nov-10 09:00N 70°60' E 024°39'0 0.0
2017-Nov-10 08:30N 70°60' E 024°39'0 0.0
2017-Nov-10 08:00N 70°60' E 024°39'0 0.0
2017-Nov-10 07:29N 70°60' E 024°39'0 0.0
2017-Nov-10 07:00N 70°60' E 024°39'0 0.0
2017-Nov-10 06:30N 70°60' E 024°39'0 0.0
2017-Nov-10 06:00N 70°60' E 024°39'0 0.1
2017-Nov-10 05:30N 70°60' E 024°39'0 0.0
2017-Nov-10 05:00N 70°60' E 024°39'0 0.0
2017-Nov-10 04:30N 70°60' E 024°39'0 0.0
2017-Nov-10 04:00N 70°60' E 024°39'0 0.0
2017-Nov-10 03:29N 70°60' E 024°39'0 0.0
2017-Nov-10 03:00N 70°60' E 024°39'0 0.0
2017-Nov-10 02:30N 70°60' E 024°39'0 0.0
2017-Nov-10 02:00N 70°60' E 024°39'0 0.0
2017-Nov-10 01:30N 70°60' E 024°39'0 0.0
2017-Nov-10 00:59N 70°60' E 024°39'0 0.0
2017-Nov-10 00:30N 70°60' E 024°39'0 0.0
2017-Nov-10 00:00N 70°60' E 024°39'0 0.0
2017-Nov-09 23:30N 70°60' E 024°39'0 0.0
2017-Nov-09 23:00N 70°60' E 024°39'0 0.0
2017-Nov-09 22:29N 70°60' E 024°39'0 0.0
2017-Nov-09 22:00N 70°60' E 024°39'0 0.0
2017-Nov-09 21:30N 70°60' E 024°39'0 0.0
2017-Nov-09 21:00N 70°60' E 024°39'0 0.0
2017-Nov-09 20:30N 70°60' E 024°39'0 0.0
2017-Nov-09 19:59N 70°60' E 024°39'0 0.0
2017-Nov-09 19:30N 70°60' E 024°39'0 0.0
2017-Nov-09 19:00N 70°60' E 024°39'0 0.1
2017-Nov-09 18:30N 70°60' E 024°39'0 0.0
2017-Nov-09 17:59N 70°60' E 024°39'0 0.0
2017-Nov-09 17:30N 70°60' E 024°39'0 0.0
2017-Nov-09 17:00N 70°60' E 024°39'0 0.0
2017-Nov-09 16:30N 70°60' E 024°39'0 0.0
2017-Nov-09 16:00N 70°60' E 024°39'0 0.0
2017-Nov-09 15:30N 70°60' E 024°39'0 0.0
2017-Nov-09 14:59N 70°60' E 024°39'0 0.0
2017-Nov-09 14:29N 70°60' E 024°39'0 0.0
2017-Nov-09 14:00N 70°60' E 024°39'0 0.0
2017-Nov-09 13:30N 70°60' E 024°39'0 0.0
2017-Nov-09 13:00N 70°60' E 024°39'0 0.0
2017-Nov-09 12:30N 70°60' E 024°39'0 0.0
2017-Nov-09 12:00N 70°60' E 024°39'0 0.0
2017-Nov-09 11:30N 70°60' E 024°39'0 0.0
2017-Nov-09 11:00N 70°60' E 024°39'0 0.0
2017-Nov-09 10:29N 70°60' E 024°39'0 0.0
2017-Nov-09 10:00N 70°60' E 024°39'0 0.0
2017-Nov-09 09:30N 70°60' E 024°39'0 0.0
2017-Nov-09 09:00N 70°60' E 024°39'0 0.0
2017-Nov-09 08:29N 70°60' E 024°39'0 0.0
2017-Nov-09 08:00N 70°60' E 024°39'0 0.0
2017-Nov-09 07:30N 70°60' E 024°39'0 0.0
2017-Nov-09 07:00N 70°60' E 024°39'0 0.0
2017-Nov-09 06:30N 70°60' E 024°39'0 0.0
2017-Nov-09 05:59N 70°60' E 024°39'0 0.0
2017-Nov-09 05:30N 70°60' E 024°39'0 0.0
2017-Nov-09 05:00N 70°60' E 024°39'0 0.0
2017-Nov-09 04:30N 70°60' E 024°39'0 0.0
2017-Nov-09 04:00N 70°60' E 024°39'0 0.0
2017-Nov-09 03:30N 70°60' E 024°39'0 0.0
2017-Nov-09 03:00N 70°60' E 024°39'0 0.0
2017-Nov-09 02:30N 70°60' E 024°39'0 0.0
2017-Nov-09 02:00N 70°60' E 024°39'0 0.0
2017-Nov-09 01:30N 70°60' E 024°39'0 0.0
2017-Nov-09 00:59N 70°60' E 024°39'0 0.1
2017-Nov-09 00:29N 70°60' E 024°39'0 0.0
2017-Nov-09 00:00N 70°60' E 024°39'0 0.0
2017-Nov-08 23:30N 70°60' E 024°39'0 0.0
2017-Nov-08 23:00N 70°60' E 024°39'0 0.0
2017-Nov-08 22:30N 70°60' E 024°39'0 0.0
2017-Nov-08 22:00N 70°60' E 024°39'0 0.0
2017-Nov-08 21:30N 70°60' E 024°39'0 0.0
2017-Nov-08 21:00N 70°60' E 024°39'0 0.0
2017-Nov-08 20:30N 70°60' E 024°39'0 0.0
2017-Nov-08 20:00N 70°60' E 024°39'0 0.0
2017-Nov-08 19:29N 70°60' E 024°39'0 0.0
2017-Nov-08 19:00N 70°60' E 024°39'0 0.0
2017-Nov-08 18:30N 70°60' E 024°39'0 0.0
2017-Nov-08 18:00N 70°60' E 024°39'0 0.0
2017-Nov-08 17:30N 70°60' E 024°39'0 0.0
2017-Nov-08 17:00N 70°60' E 024°39'0 0.0
2017-Nov-08 16:30N 70°60' E 024°39'0 0.0
2017-Nov-08 16:00N 70°60' E 024°39'0 0.0
2017-Nov-08 15:30N 70°60' E 024°39'0 0.0
2017-Nov-08 15:00N 70°60' E 024°39'0 0.0
2017-Nov-08 14:30N 70°60' E 024°39'0 0.0
2017-Nov-08 14:00N 70°60' E 024°39'0 0.0
2017-Nov-08 13:29N 70°60' E 024°39'0 0.0
2017-Nov-08 13:00N 70°60' E 024°39'0 0.0
2017-Nov-08 12:30N 70°60' E 024°39'0 0.0
2017-Nov-08 12:00N 70°60' E 024°39'0 0.0
2017-Nov-08 11:30N 70°60' E 024°39'0 0.0
2017-Nov-08 11:00N 70°60' E 024°39'0 0.0
2017-Nov-08 10:30N 70°60' E 024°39'0 0.0
2017-Nov-08 10:00N 70°60' E 024°39'0 0.0
2017-Nov-08 09:30N 70°60' E 024°39'0 0.0
2017-Nov-08 08:59N 70°60' E 024°39'0 0.0
2017-Nov-08 08:30N 70°60' E 024°39'0 0.0
2017-Nov-08 08:00N 70°60' E 024°39'0 0.0
2017-Nov-08 07:30N 70°60' E 024°39'0 0.1
2017-Nov-08 07:00N 70°60' E 024°39'0 0.0
2017-Nov-08 06:30N 70°60' E 024°39'0 0.0
2017-Nov-08 05:59N 70°60' E 024°39'0 0.0
2017-Nov-08 05:30N 70°60' E 024°39'0 0.0
2017-Nov-08 05:00N 70°60' E 024°39'0 0.0
2017-Nov-08 04:30N 70°60' E 024°39'0 0.0
2017-Nov-08 04:00N 70°60' E 024°39'0 0.0
2017-Nov-08 03:30N 70°60' E 024°39'0 0.0
2017-Nov-08 03:00N 70°60' E 024°39'0 0.0
2017-Nov-08 02:30N 70°60' E 024°39'0 0.0
2017-Nov-08 02:00N 70°60' E 024°39'0 0.0
2017-Nov-08 01:30N 70°60' E 024°39'0 0.0
2017-Nov-08 01:00N 70°60' E 024°39'0 0.0
2017-Nov-08 00:29N 70°60' E 024°39'0 0.0
2017-Nov-08 00:00N 70°60' E 024°39'0 0.0
2017-Nov-07 23:30N 70°60' E 024°39'0 0.0
2017-Nov-07 23:00N 70°60' E 024°39'0 0.0
2017-Nov-07 22:30N 70°60' E 024°39'0 0.0
2017-Nov-07 22:00N 70°60' E 024°39'0 0.0
2017-Nov-07 21:30N 70°60' E 024°39'0 0.0
2017-Nov-07 21:00N 70°60' E 024°39'0 0.0
2017-Nov-07 20:30N 70°60' E 024°39'0 0.0
2017-Nov-07 20:00N 70°60' E 024°39'0 0.0
2017-Nov-07 19:30N 70°60' E 024°39'0 0.0
2017-Nov-07 18:59N 70°60' E 024°39'0 0.0
2017-Nov-07 18:30N 70°60' E 024°39'0 0.0
2017-Nov-07 18:00N 70°60' E 024°39'0 0.0
2017-Nov-07 17:30N 70°60' E 024°39'0 0.0
2017-Nov-07 17:00N 70°60' E 024°39'0 0.0
2017-Nov-07 16:29N 70°60' E 024°39'0 0.0
2017-Nov-07 16:00N 70°60' E 024°39'  
Track history (hours):
 
Tides and Currents Weather Stations Pressure Air Temp Water Temp Dewpoint Dewpoint Depression Visibility Wind Speed Wind Dir Waves Ship Positions

Loppoey

Last reported at 2017-Nov-17 15:39 UTC. Time now 2017-Nov-24 14:53 UTC.
Position N 70°40' E 023°41'.

Length 27 m; draft 1 m.

Type: High speed craft. MMSI: 258127000.

Date/timePositionNaut miles runAvg speedWind from/ knotsBaromVisibWave heightAir tempDewpointWater temp
2017-Nov-17 15:39N 70°40' E 023°41'0 0.4
2017-Nov-17 15:30N 70°40' E 023°41'0 0.0
2017-Nov-17 14:58N 70°40' E 023°41'0 0.0
2017-Nov-17 14:30N 70°40' E 023°41'0 0.0
2017-Nov-17 14:00N 70°40' E 023°41'0 0.0
2017-Nov-17 13:30N 70°40' E 023°41'0 0.0
2017-Nov-17 13:00N 70°40' E 023°41'0 0.0
2017-Nov-17 12:30N 70°40' E 023°41'0 0.0
2017-Nov-17 11:59N 70°40' E 023°41'0 0.0
2017-Nov-17 11:30N 70°40' E 023°41'0 0.0
2017-Nov-17 11:00N 70°40' E 023°41'0 0.0
2017-Nov-17 10:29N 70°40' E 023°41'0 0.0
2017-Nov-17 09:59N 70°40' E 023°41'0 0.0
2017-Nov-17 09:30N 70°40' E 023°41'0 0.0
2017-Nov-17 09:00N 70°40' E 023°41'0 0.0
2017-Nov-17 08:30N 70°40' E 023°41'0 0.4
2017-Nov-17 08:00N 70°40' E 023°40'43 1.9
2017-Nov-16 09:05N 70°17' E 021°50'224.6
2017-Nov-16 09:00N 70°15' E 021°47'611.4
2017-Nov-16 08:30N 70°20' E 021°57'1020.0
2017-Nov-16 08:00N 70°14' E 022°21'0 0.0
2017-Nov-16 07:30N 70°14' E 022°21'0 0.0
2017-Nov-16 07:00N 70°14' E 022°21'0 0.0
2017-Nov-16 06:30N 70°14' E 022°21'0 0.0
2017-Nov-16 06:00N 70°14' E 022°21'0 0.0
2017-Nov-16 05:30N 70°14' E 022°21'0 0.0
2017-Nov-16 05:00N 70°14' E 022°21'0 0.0
2017-Nov-16 04:30N 70°14' E 022°21'0 0.0
2017-Nov-16 04:00N 70°14' E 022°21'0 0.0
2017-Nov-16 03:30N 70°14' E 022°21'0 0.0
2017-Nov-16 03:00N 70°14' E 022°21'0 0.0
2017-Nov-16 02:30N 70°14' E 022°21'0 0.0
2017-Nov-16 02:00N 70°14' E 022°21'0 0.0
2017-Nov-16 01:30N 70°14' E 022°21'0 0.0
2017-Nov-16 01:00N 70°14' E 022°21'0 0.0
2017-Nov-16 00:30N 70°14' E 022°21'0 0.0
2017-Nov-16 00:00N 70°14' E 022°21'0 0.0
2017-Nov-15 23:30N 70°14' E 022°21'0 0.0
2017-Nov-15 23:00N 70°14' E 022°21'0 0.0
2017-Nov-15 22:30N 70°14' E 022°21'0 0.0
2017-Nov-15 22:00N 70°14' E 022°21'0 0.0
2017-Nov-15 21:30N 70°14' E 022°21'0 0.0
2017-Nov-15 20:59N 70°14' E 022°21'0 0.0
2017-Nov-15 20:30N 70°14' E 022°21'0 0.0
2017-Nov-15 20:00N 70°14' E 022°21'0 0.0
2017-Nov-15 19:30N 70°14' E 022°21'0 0.0
2017-Nov-15 19:00N 70°14' E 022°21'0 0.0
2017-Nov-15 18:30N 70°14' E 022°21'0 0.0
2017-Nov-15 17:59N 70°14' E 022°21'1020.0
2017-Nov-15 17:30N 70°24' E 022°15'510.6
2017-Nov-15 17:00N 70°28' E 022°23'1325.8
2017-Nov-15 16:30N 70°32' E 023°01'1019.8
2017-Nov-15 16:00N 70°38' E 023°24'611.6
2017-Nov-15 15:30N 70°40' E 023°41'0 0.0
2017-Nov-15 15:00N 70°40' E 023°41'0 0.0
2017-Nov-15 14:30N 70°40' E 023°41'0 0.0
2017-Nov-15 14:00N 70°40' E 023°41'0 0.0
2017-Nov-15 13:31N 70°40' E 023°41'0 0.0
2017-Nov-15 13:00N 70°40' E 023°41'0 0.0
2017-Nov-15 12:30N 70°40' E 023°41'0 0.0
2017-Nov-15 12:00N 70°40' E 023°41'0 0.0
2017-Nov-15 11:31N 70°40' E 023°41'0 0.0
2017-Nov-15 11:00N 70°40' E 023°41'0 0.2
2017-Nov-15 10:30N 70°40' E 023°41'1223.6
2017-Nov-15 10:00N 70°33' E 023°11'1121.7
2017-Nov-15 09:30N 70°29' E 022°41'1021.0
2017-Nov-15 09:00N 70°29' E 022°10'1223.5
2017-Nov-15 08:30N 70°17' E 022°19'3 6.1
2017-Nov-15 08:00N 70°14' E 022°21'0 0.0
2017-Nov-15 07:30N 70°14' E 022°21'0 0.0
2017-Nov-15 07:00N 70°14' E 022°21'0 0.0
2017-Nov-15 06:30N 70°14' E 022°21'0 0.0
2017-Nov-15 06:00N 70°14' E 022°21'0 0.0
2017-Nov-15 05:30N 70°14' E 022°21'0 0.0
2017-Nov-15 05:01N 70°14' E 022°21'0 0.0
2017-Nov-15 04:30N 70°14' E 022°21'0 0.0
2017-Nov-15 04:00N 70°14' E 022°21'0 0.0
2017-Nov-15 03:29N 70°14' E 022°21'0 0.0
2017-Nov-15 03:00N 70°14' E 022°21'0 0.0
2017-Nov-15 02:30N 70°14' E 022°21'0 0.0
2017-Nov-15 02:00N 70°14' E 022°21'0 0.0
2017-Nov-15 01:30N 70°14' E 022°21'0 0.0
2017-Nov-15 01:00N 70°14' E 022°21'0 0.0
2017-Nov-15 00:30N 70°14' E 022°21'0 0.0
2017-Nov-15 00:00N 70°14' E 022°21'0 0.0
2017-Nov-14 23:30N 70°14' E 022°21'0 0.0
2017-Nov-14 23:01N 70°14' E 022°21'0 0.0
2017-Nov-14 22:30N 70°14' E 022°21'0 0.0
2017-Nov-14 22:00N 70°14' E 022°21'0 0.0
2017-Nov-14 21:30N 70°14' E 022°21'0 0.0
2017-Nov-14 21:01N 70°14' E 022°21'0 0.0
2017-Nov-14 20:30N 70°14' E 022°21'0 0.0
2017-Nov-14 20:00N 70°14' E 022°21'0 0.0
2017-Nov-14 19:30N 70°14' E 022°21'0 0.0
2017-Nov-14 19:00N 70°14' E 022°21'0 0.0
2017-Nov-14 18:30N 70°14' E 022°21'0 0.0
2017-Nov-14 18:00N 70°14' E 022°21'0 0.0
2017-Nov-14 17:30N 70°14' E 022°21'0 0.0
2017-Nov-14 16:59N 70°14' E 022°21'0 0.0
2017-Nov-14 16:30N 70°14' E 022°21'0 0.0
2017-Nov-14 16:00N 70°14' E 022°21'0 0.0
2017-Nov-14 15:30N 70°14' E 022°21'0 0.0
2017-Nov-14 15:00N 70°14' E 022°21'0 0.0
2017-Nov-14 14:30N 70°14' E 022°21'917.3
2017-Nov-14 14:00N 70°23' E 022°27'1325.2
2017-Nov-14 13:30N 70°31' E 022°56'1225.0
2017-Nov-14 13:00N 70°38' E 023°25'510.6
2017-Nov-14 12:30N 70°40' E 023°40'0 0.0
2017-Nov-14 12:00N 70°40' E 023°40'0 0.0
2017-Nov-14 11:30N 70°40' E 023°40'0 0.8
2017-Nov-14 11:00N 70°40' E 023°41'0 0.0
2017-Nov-14 10:30N 70°40' E 023°41'713.7
2017-Nov-14 10:00N 70°47' E 023°44'1325.3
2017-Nov-14 09:30N 70°55' E 024°14'1019.0
2017-Nov-14 09:00N 70°60' E 024°39'0 0.0
2017-Nov-14 08:30N 70°60' E 024°39'0 0.7
2017-Nov-14 08:00N 70°60' E 024°41'0 0.7
2017-Nov-14 07:30N 70°60' E 024°39'0 0.0
2017-Nov-14 07:00N 70°60' E 024°39'0 0.0
2017-Nov-14 06:30N 70°60' E 024°39'0 0.0
2017-Nov-14 05:59N 70°60' E 024°39'0 0.0
2017-Nov-14 05:30N 70°60' E 024°39'0 0.0
2017-Nov-14 05:00N 70°60' E 024°39'0 0.0
2017-Nov-14 04:30N 70°60' E 024°39'0 0.0
2017-Nov-14 04:00N 70°60' E 024°39'0 0.0
2017-Nov-14 03:30N 70°60' E 024°39'0 0.0
2017-Nov-14 03:00N 70°60' E 024°39'0 0.0
2017-Nov-14 02:30N 70°60' E 024°39'0 0.0
2017-Nov-14 01:59N 70°60' E 024°39'0 0.0
2017-Nov-14 01:29N 70°60' E 024°39'0 0.0
2017-Nov-14 01:00N 70°60' E 024°39'0 0.0
2017-Nov-14 00:30N 70°60' E 024°39'0 0.0
2017-Nov-13 23:59N 70°60' E 024°39'0 0.0
2017-Nov-13 23:30N 70°60' E 024°39'0 0.0
2017-Nov-13 23:00N 70°60' E 024°39'0 0.0
2017-Nov-13 22:30N 70°60' E 024°39'0 0.0
2017-Nov-13 21:59N 70°60' E 024°39'0 0.0
2017-Nov-13 02:00N 70°60' E 024°39'0 0.0
2017-Nov-13 01:30N 70°60' E 024°39'0 0.1
2017-Nov-13 01:00N 70°60' E 024°39'0 0.0
2017-Nov-13 00:30N 70°60' E 024°39'0 0.0
2017-Nov-13 00:00N 70°60' E 024°39'0 0.0
2017-Nov-12 23:30N 70°60' E 024°39'0 0.0
2017-Nov-12 23:00N 70°60' E 024°39'0 0.0
2017-Nov-12 22:30N 70°60' E 024°39'0 0.0
2017-Nov-12 22:00N 70°60' E 024°39'0 0.0
2017-Nov-12 21:30N 70°60' E 024°39'0 0.0
2017-Nov-12 21:00N 70°60' E 024°39'0 0.0
2017-Nov-12 20:30N 70°60' E 024°39'0 0.1
2017-Nov-12 20:00N 70°60' E 024°39'0 0.1
2017-Nov-12 19:29N 70°60' E 024°39'0 0.0
2017-Nov-12 19:00N 70°60' E 024°39'0 0.0
2017-Nov-12 18:30N 70°60' E 024°39'0 0.0
2017-Nov-12 18:00N 70°60' E 024°39'0 0.0
2017-Nov-12 17:30N 70°60' E 024°39'0 0.0
2017-Nov-12 17:00N 70°60' E 024°39'0 0.0
2017-Nov-12 16:30N 70°60' E 024°39'0 0.0
2017-Nov-12 16:00N 70°60' E 024°39'0 0.0
2017-Nov-12 15:29N 70°60' E 024°39'0 0.0
2017-Nov-12 15:00N 70°60' E 024°39'0 0.0
2017-Nov-12 14:30N 70°60' E 024°39'0 0.1
2017-Nov-12 14:00N 70°60' E 024°39'0 0.0
2017-Nov-12 13:29N 70°60' E 024°39'0 0.0
2017-Nov-12 13:00N 70°60' E 024°39'0 0.0
2017-Nov-12 12:30N 70°60' E 024°39'0 0.0
2017-Nov-12 12:00N 70°60' E 024°39'0 0.0
2017-Nov-12 11:30N 70°60' E 024°39'0 0.0
2017-Nov-12 11:00N 70°60' E 024°39'0 0.0
2017-Nov-12 10:30N 70°60' E 024°39'0 0.0
2017-Nov-12 10:00N 70°60' E 024°39'0 0.0
2017-Nov-12 09:30N 70°60' E 024°39'0 0.0
2017-Nov-12 09:00N 70°60' E 024°39'0 0.0
2017-Nov-12 08:30N 70°60' E 024°39'0 0.0
2017-Nov-12 08:00N 70°60' E 024°39'0 0.0
2017-Nov-12 07:30N 70°60' E 024°39'0 0.0
2017-Nov-12 07:00N 70°60' E 024°39'0 0.0
2017-Nov-12 06:30N 70°60' E 024°39'0 0.0
2017-Nov-12 06:00N 70°60' E 024°39'0 0.0
2017-Nov-12 05:30N 70°60' E 024°39'0 0.0
2017-Nov-12 05:00N 70°60' E 024°39'0 0.0
2017-Nov-12 04:30N 70°60' E 024°39'0 0.1
2017-Nov-12 04:00N 70°60' E 024°39'0 0.0
2017-Nov-12 03:30N 70°60' E 024°39'0 0.0
2017-Nov-12 03:00N 70°60' E 024°39'0 0.1
2017-Nov-12 02:30N 70°60' E 024°39'0 0.0
2017-Nov-12 02:00N 70°60' E 024°39'0 0.0
2017-Nov-12 01:30N 70°60' E 024°39'0 0.0
2017-Nov-12 01:00N 70°60' E 024°39'0 0.0
2017-Nov-12 00:30N 70°60' E 024°39'0 0.0
2017-Nov-12 00:00N 70°60' E 024°39'0 0.0
2017-Nov-11 23:30N 70°60' E 024°39'0 0.0
2017-Nov-11 23:00N 70°60' E 024°39'0 0.0
2017-Nov-11 22:30N 70°60' E 024°39'0 0.0
2017-Nov-11 22:00N 70°60' E 024°39'0 0.0
2017-Nov-11 21:30N 70°60' E 024°39'0 0.0
2017-Nov-11 21:00N 70°60' E 024°39'0 0.0
2017-Nov-11 20:30N 70°60' E 024°39'0 0.0
2017-Nov-11 20:00N 70°60' E 024°39'0 0.0
2017-Nov-11 19:30N 70°60' E 024°39'0 0.0
2017-Nov-11 19:00N 70°60' E 024°39'0 0.0
2017-Nov-11 18:30N 70°60' E 024°39'0 0.0
2017-Nov-11 18:00N 70°60' E 024°39'0 0.0
2017-Nov-11 17:30N 70°60' E 024°39'0 0.0
2017-Nov-11 17:00N 70°60' E 024°39'0 0.0
2017-Nov-11 16:29N 70°60' E 024°39'0 0.0
2017-Nov-11 16:00N 70°60' E 024°39'0 0.0
2017-Nov-11 15:30N 70°60' E 024°39'0 0.0
2017-Nov-11 15:00N 70°60' E 024°39'0 0.0
2017-Nov-11 14:30N 70°60' E 024°39'0 0.0
2017-Nov-11 14:00N 70°60' E 024°39'0 0.0
2017-Nov-11 13:30N 70°60' E 024°39'0 0.0
2017-Nov-11 13:00N 70°60' E 024°39'0 0.0
2017-Nov-11 12:30N 70°60' E 024°39'0 0.0
2017-Nov-11 12:00N 70°60' E 024°39'0 0.0
2017-Nov-11 11:30N 70°60' E 024°39'0 0.0
2017-Nov-11 11:00N 70°60' E 024°39'0 0.0
2017-Nov-11 10:30N 70°60' E 024°39'0 0.0
2017-Nov-11 10:00N 70°60' E 024°39'0 0.0
2017-Nov-11 09:30N 70°60' E 024°39'0 0.0
2017-Nov-11 09:00N 70°60' E 024°39'0 0.0
2017-Nov-11 08:29N 70°60' E 024°39'0 0.0
2017-Nov-11 08:00N 70°60' E 024°39'0 0.0
2017-Nov-11 07:30N 70°60' E 024°39'0 0.0
2017-Nov-11 07:00N 70°60' E 024°39'0 0.0
2017-Nov-11 06:30N 70°60' E 024°39'0 0.0
2017-Nov-11 06:00N 70°60' E 024°39'0 0.0
2017-Nov-11 05:30N 70°60' E 024°39'0 0.0
2017-Nov-11 05:00N 70°60' E 024°39'0 0.0
2017-Nov-11 04:30N 70°60' E 024°39'0 0.0
2017-Nov-11 04:00N 70°60' E 024°39'0 0.0
2017-Nov-11 03:30N 70°60' E 024°39'0 0.0
2017-Nov-11 03:00N 70°60' E 024°39'0 0.0
2017-Nov-11 02:30N 70°60' E 024°39'0 0.0
2017-Nov-11 02:00N 70°60' E 024°39'0 0.0
2017-Nov-11 01:30N 70°60' E 024°39'0 0.1
2017-Nov-11 01:00N 70°60' E 024°39'0 0.0
2017-Nov-11 00:30N 70°60' E 024°39'0 0.0
2017-Nov-11 00:00N 70°60' E 024°39'0 0.0
2017-Nov-10 23:30N 70°60' E 024°39'0 0.0
2017-Nov-10 23:00N 70°60' E 024°39'0 0.0
2017-Nov-10 22:30N 70°60' E 024°39'0 0.0
2017-Nov-10 22:00N 70°60' E 024°39'0 0.0
2017-Nov-10 21:30N 70°60' E 024°39'0 0.0
2017-Nov-10 21:00N 70°60' E 024°39'0 0.0
2017-Nov-10 20:30N 70°60' E 024°39'0 0.0
2017-Nov-10 20:00N 70°60' E 024°39'0 0.0
2017-Nov-10 19:30N 70°60' E 024°39'0 0.0
2017-Nov-10 19:00N 70°60' E 024°39'0 0.0
2017-Nov-10 18:30N 70°60' E 024°39'0 0.0
2017-Nov-10 18:00N 70°60' E 024°39'0 0.0
2017-Nov-10 17:30N 70°60' E 024°39'0 0.0
2017-Nov-10 17:00N 70°60' E 024°39'0 0.0
2017-Nov-10 16:29N 70°60' E 024°39'0 0.0
2017-Nov-10 16:00N 70°60' E 024°39'0 0.0
2017-Nov-10 15:30N 70°60' E 024°39'0 0.0
2017-Nov-10 15:00N 70°60' E 024°39'0 0.0
2017-Nov-10 14:30N 70°60' E 024°39'0 0.0
2017-Nov-10 14:00N 70°60' E 024°39'0 0.0
2017-Nov-10 13:30N 70°60' E 024°39'0 0.1
2017-Nov-10 13:00N 70°60' E 024°39'0 0.0
2017-Nov-10 12:30N 70°60' E 024°39'0 0.0
2017-Nov-10 12:00N 70°60' E 024°39'0 0.0
2017-Nov-10 11:30N 70°60' E 024°39'0 0.0
2017-Nov-10 11:00N 70°60' E 024°39'0 0.0
2017-Nov-10 10:30N 70°60' E 024°39'0 0.0
2017-Nov-10 10:00N 70°60' E 024°39'0 0.0
2017-Nov-10 09:30N 70°60' E 024°39'0 0.0
2017-Nov-10 09:00N 70°60' E 024°39'0 0.0
2017-Nov-10 08:30N 70°60' E 024°39'0 0.0
2017-Nov-10 08:00N 70°60' E 024°39'0 0.0
2017-Nov-10 07:29N 70°60' E 024°39'0 0.0
2017-Nov-10 07:00N 70°60' E 024°39'0 0.0
2017-Nov-10 06:30N 70°60' E 024°39'0 0.0
2017-Nov-10 06:00N 70°60' E 024°39'0 0.1
2017-Nov-10 05:30N 70°60' E 024°39'0 0.0
2017-Nov-10 05:00N 70°60' E 024°39'0 0.0
2017-Nov-10 04:30N 70°60' E 024°39'0 0.0
2017-Nov-10 04:00N 70°60' E 024°39'0 0.0
2017-Nov-10 03:29N 70°60' E 024°39'0 0.0
2017-Nov-10 03:00N 70°60' E 024°39'0 0.0
2017-Nov-10 02:30N 70°60' E 024°39'0 0.0
2017-Nov-10 02:00N 70°60' E 024°39'0 0.0
2017-Nov-10 01:30N 70°60' E 024°39'0 0.0
2017-Nov-10 00:59N 70°60' E 024°39'0 0.0
2017-Nov-10 00:30N 70°60' E 024°39'0 0.0
2017-Nov-10 00:00N 70°60' E 024°39'0 0.0
2017-Nov-09 23:30N 70°60' E 024°39'0 0.0
2017-Nov-09 23:00N 70°60' E 024°39'0 0.0
2017-Nov-09 22:29N 70°60' E 024°39'0 0.0
2017-Nov-09 22:00N 70°60' E 024°39'0 0.0
2017-Nov-09 21:30N 70°60' E 024°39'0 0.0
2017-Nov-09 21:00N 70°60' E 024°39'0 0.0
2017-Nov-09 20:30N 70°60' E 024°39'0 0.0
2017-Nov-09 19:59N 70°60' E 024°39'0 0.0
2017-Nov-09 19:30N 70°60' E 024°39'0 0.0
2017-Nov-09 19:00N 70°60' E 024°39'0 0.1
2017-Nov-09 18:30N 70°60' E 024°39'0 0.0
2017-Nov-09 17:59N 70°60' E 024°39'0 0.0
2017-Nov-09 17:30N 70°60' E 024°39'0 0.0
2017-Nov-09 17:00N 70°60' E 024°39'0 0.0
2017-Nov-09 16:30N 70°60' E 024°39'0 0.0
2017-Nov-09 16:00N 70°60' E 024°39'0 0.0
2017-Nov-09 15:30N 70°60' E 024°39'0 0.0
2017-Nov-09 14:59N 70°60' E 024°39'0 0.0
2017-Nov-09 14:29N 70°60' E 024°39'0 0.0
2017-Nov-09 14:00N 70°60' E 024°39'0 0.0
2017-Nov-09 13:30N 70°60' E 024°39'0 0.0
2017-Nov-09 13:00N 70°60' E 024°39'0 0.0
2017-Nov-09 12:30N 70°60' E 024°39'0 0.0
2017-Nov-09 12:00N 70°60' E 024°39'0 0.0
2017-Nov-09 11:30N 70°60' E 024°39'0 0.0
2017-Nov-09 11:00N 70°60' E 024°39'0 0.0
2017-Nov-09 10:29N 70°60' E 024°39'0 0.0
2017-Nov-09 10:00N 70°60' E 024°39'0 0.0
2017-Nov-09 09:30N 70°60' E 024°39'0 0.0
2017-Nov-09 09:00N 70°60' E 024°39'0 0.0
2017-Nov-09 08:29N 70°60' E 024°39'0 0.0
2017-Nov-09 08:00N 70°60' E 024°39'0 0.0
2017-Nov-09 07:30N 70°60' E 024°39'0 0.0
2017-Nov-09 07:00N 70°60' E 024°39'0 0.0
2017-Nov-09 06:30N 70°60' E 024°39'0 0.0
2017-Nov-09 05:59N 70°60' E 024°39'0 0.0
2017-Nov-09 05:30N 70°60' E 024°39'0 0.0
2017-Nov-09 05:00N 70°60' E 024°39'0 0.0
2017-Nov-09 04:30N 70°60' E 024°39'0 0.0
2017-Nov-09 04:00N 70°60' E 024°39'0 0.0
2017-Nov-09 03:30N 70°60' E 024°39'0 0.0
2017-Nov-09 03:00N 70°60' E 024°39'0 0.0
2017-Nov-09 02:30N 70°60' E 024°39'0 0.0
2017-Nov-09 02:00N 70°60' E 024°39'0 0.0
2017-Nov-09 01:30N 70°60' E 024°39'0 0.0
2017-Nov-09 00:59N 70°60' E 024°39'0 0.1
2017-Nov-09 00:29N 70°60' E 024°39'0 0.0
2017-Nov-09 00:00N 70°60' E 024°39'0 0.0
2017-Nov-08 23:30N 70°60' E 024°39'0 0.0
2017-Nov-08 23:00N 70°60' E 024°39'0 0.0
2017-Nov-08 22:30N 70°60' E 024°39'0 0.0
2017-Nov-08 22:00N 70°60' E 024°39'0 0.0
2017-Nov-08 21:30N 70°60' E 024°39'0 0.0
2017-Nov-08 21:00N 70°60' E 024°39'0 0.0
2017-Nov-08 20:30N 70°60' E 024°39'0 0.0
2017-Nov-08 20:00N 70°60' E 024°39'0 0.0
2017-Nov-08 19:29N 70°60' E 024°39'0 0.0
2017-Nov-08 19:00N 70°60' E 024°39'0 0.0
2017-Nov-08 18:30N 70°60' E 024°39'0 0.0
2017-Nov-08 18:00N 70°60' E 024°39'0 0.0
2017-Nov-08 17:30N 70°60' E 024°39'0 0.0
2017-Nov-08 17:00N 70°60' E 024°39'0 0.0
2017-Nov-08 16:30N 70°60' E 024°39'0 0.0
2017-Nov-08 16:00N 70°60' E 024°39'0 0.0
2017-Nov-08 15:30N 70°60' E 024°39'0 0.0
2017-Nov-08 15:00N 70°60' E 024°39'0 0.0
2017-Nov-08 14:30N 70°60' E 024°39'0 0.0
2017-Nov-08 14:00N 70°60' E 024°39'0 0.0
2017-Nov-08 13:29N 70°60' E 024°39'0 0.0
2017-Nov-08 13:00N 70°60' E 024°39'0 0.0
2017-Nov-08 12:30N 70°60' E 024°39'0 0.0
2017-Nov-08 12:00N 70°60' E 024°39'0 0.0
2017-Nov-08 11:30N 70°60' E 024°39'0 0.0
2017-Nov-08 11:00N 70°60' E 024°39'0 0.0
2017-Nov-08 10:30N 70°60' E 024°39'0 0.0
2017-Nov-08 10:00N 70°60' E 024°39'0 0.0
2017-Nov-08 09:30N 70°60' E 024°39'0 0.0
2017-Nov-08 08:59N 70°60' E 024°39'0 0.0
2017-Nov-08 08:30N 70°60' E 024°39'0 0.0
2017-Nov-08 08:00N 70°60' E 024°39'0 0.0
2017-Nov-08 07:30N 70°60' E 024°39'0 0.1
2017-Nov-08 07:00N 70°60' E 024°39'0 0.0
2017-Nov-08 06:30N 70°60' E 024°39'0 0.0
2017-Nov-08 05:59N 70°60' E 024°39'0 0.0
2017-Nov-08 05:30N 70°60' E 024°39'0 0.0
2017-Nov-08 05:00N 70°60' E 024°39'0 0.0
2017-Nov-08 04:30N 70°60' E 024°39'0 0.0
2017-Nov-08 04:00N 70°60' E 024°39'0 0.0
2017-Nov-08 03:30N 70°60' E 024°39'0 0.0
2017-Nov-08 03:00N 70°60' E 024°39'0 0.0
2017-Nov-08 02:30N 70°60' E 024°39'0 0.0
2017-Nov-08 02:00N 70°60' E 024°39'0 0.0
2017-Nov-08 01:30N 70°60' E 024°39'0 0.0
2017-Nov-08 01:00N 70°60' E 024°39'0 0.0
2017-Nov-08 00:29N 70°60' E 024°39'0 0.0
2017-Nov-08 00:00N 70°60' E 024°39'0 0.0
2017-Nov-07 23:30N 70°60' E 024°39'0 0.0
2017-Nov-07 23:00N 70°60' E 024°39'0 0.0
2017-Nov-07 22:30N 70°60' E 024°39'0 0.0
2017-Nov-07 22:00N 70°60' E 024°39'0 0.0
2017-Nov-07 21:30N 70°60' E 024°39'0 0.0
2017-Nov-07 21:00N 70°60' E 024°39'0 0.0
2017-Nov-07 20:30N 70°60' E 024°39'0 0.0
2017-Nov-07 20:00N 70°60' E 024°39'0 0.0
2017-Nov-07 19:30N 70°60' E 024°39'0 0.0
2017-Nov-07 18:59N 70°60' E 024°39'0 0.0
2017-Nov-07 18:30N 70°60' E 024°39'0 0.0
2017-Nov-07 18:00N 70°60' E 024°39'0 0.0
2017-Nov-07 17:30N 70°60' E 024°39'0 0.0
2017-Nov-07 17:00N 70°60' E 024°39'0 0.0
2017-Nov-07 16:29N 70°60' E 024°39'0 0.0
2017-Nov-07 16:00N 70°60' E 024°39'  

Dump ship's entire track history